ADDS METAR Data INFO
IDs: Format: Raw Decoded Include TAF

Data at: 0212 UTC 17 Aug 2018

PAGK 170153Z AUTO 16010KT 5SM -RA BR BKN047 OVC060 10/08 A2998 RMK AO2 SLP165 P0005 T01000078 TSNO
PAGK 170053Z AUTO 17012KT 10SM -RA BKN055 OVC070 12/06 A2996 RMK AO2 RAB51 SLP157 P0000 T01170061 TSNO
PAGK 162353Z AUTO 19006KT 10SM FEW035 SCT060 OVC110 13/06 A2996 RMK AO2 SLP155 T01330061 10144 20094 55003 TSNO
PAGK 162253Z AUTO 17007KT 10SM SCT035 BKN120 13/06 A2996 RMK AO2 SLP153 T01330056 TSNO
PAGK 162153Z AUTO 16004KT 10SM FEW120 13/06 A2997 RMK AO2 SLP155 T01280056 TSNO
PAGK 162053Z AUTO 11004KT 10SM FEW032 SCT120 12/05 A2997 RMK AO2 SLP157 T01220050 58002 TSNO
PAGK 161953Z AUTO 25003KT 10SM BKN120 12/06 A2998 RMK AO2 SLP157 T01170056 TSNO
PAGK 161853Z AUTO 00000KT 10SM BKN110 10/06 A2998 RMK AO2 SLP159 T01000056 TSNO
PAGK 161753Z AUTO VRB03KT 10SM FEW095 BKN120 09/06 A2998 RMK AO2 SLP159 T00890056 10089 20039 50003 TSNO
PAGK 161653Z AUTO 19004KT 10SM OVC090 07/05 A2998 RMK AO2 SLP159 T00720050 TSNO
PAGK 161553Z AUTO 20004KT 10SM BKN080 OVC110 06/04 A2997 RMK AO2 SLP159 T00610044 TSNO
PAGK 161453Z AUTO 00000KT 10SM OVC080 06/04 A2997 RMK AO2 SLP157 T00560039 51000 TSNO
PAGK 161353Z AUTO 00000KT 10SM BKN065 OVC120 04/03 A2997 RMK AO2 SLP157 T00440033 TSNO
PAGK 161253Z AUTO 00000KT 10SM BKN110 05/04 A2997 RMK AO2 SLP156 T00500039 TSNO
PAGK 161153Z AUTO 00000KT 10SM SCT110 06/04 A2997 RMK AO2 SLP156 T00560039 10111 20056 58000 TSNO
PAGK 161053Z AUTO 21003KT 10SM OVC100 06/04 A2997 RMK AO2 SLP157 T00610039 TSNO
PAGK 160953Z AUTO 19004KT 10SM OVC095 07/04 A2997 RMK AO2 SLP156 T00720044 TSNO
PAGK 160853Z AUTO 18006KT 10SM OVC100 08/04 A2997 RMK AO2 SLP155 T00780044 401560078 51008 TSNO
PAGK 160753Z AUTO 16008KT 10SM FEW075 OVC110 09/04 A2996 RMK AO2 SLP152 T00890044 TSNO
PAGK 160653Z AUTO 15010KT 10SM OVC070 11/05 A2995 RMK AO2 SLP149 T01060050 TSNO
PAGK 160553Z AUTO 16011KT 10SM OVC075 11/05 A2994 RMK AO2 SLP146 T01110050 10156 20111 53009 TSNO
PAGK 160453Z AUTO 15013KT 10SM BKN075 OVC100 12/06 A2994 RMK AO2 SLP143 T01220056 TSNO
PAGK 160353Z AUTO 15011KT 10SM SCT075 BKN120 13/06 A2992 RMK AO2 SLP137 T01280056 TSNO
PAGK 160253Z AUTO 14013G25KT 10SM BKN070 13/06 A2992 RMK AO2 SLP136 T01330056 55004 TSNO
PAGK 160153Z AUTO 16015G23KT 10SM OVC065 14/06 A2991 RMK AO2 PK WND 15026/0134 SLP134 T01440061 TSNO
PAGK 160053Z AUTO 16017G24KT 10SM CLR 16/06 A2992 RMK AO2 SLP135 T01560061 TSNO
PAGK 152353Z AUTO 16016G23KT 10SM BKN090 14/06 A2993 RMK AO2 PK WND 16026/2312 SLP140 T01440056 10150 20111 58004 TSNO
PAGK 152253Z AUTO 16016G21KT 10SM BKN060 BKN075 14/06 A2994 RMK AO2 SLP142 T01390061 TSNO
PAGK 152153Z AUTO 16012G19KT 10SM BKN050 OVC065 14/07 A2994 RMK AO2 SLP144 T01390067 TSNO
PAGK 152053Z AUTO 14013KT 10SM FEW060 BKN110 13/07 A2994 RMK AO2 SLP144 T01330072 50003 TSNO
PAGK 151953Z AUTO 15013KT 10SM FEW060 OVC110 13/07 A2994 RMK AO2 SLP146 T01280072 TSNO
PAGK 151853Z AUTO 17009KT 10SM FEW055 BKN110 12/07 A2994 RMK AO2 SLP145 T01170072 TSNO
PAGK 151753Z AUTO 16010KT 10SM BKN085 11/08 A2993 RMK AO2 SLP141 T01110078 10111 20089 52006 TSNO
PAGK 151653Z AUTO 17007KT 10SM OVC085 10/08 A2993 RMK AO2 SLP140 T01000078 TSNO
PAGK 151553Z AUTO 17007KT 10SM OVC090 09/08 A2992 RMK AO2 SLP136 T00940078 TSNO
PAGK 151453Z AUTO 17007KT 10SM FEW070 OVC090 09/07 A2991 RMK AO2 SLP135 T00890072 52005 TSNO